Time,TemperatureF,DewpointF,PressureIn,WindDirection,WindDirectionDegrees,WindSpeedMPH,WindSpeedGustMPH,Humidity,HourlyPrecipIn,Conditions,Clouds,dailyrainin,SolarRadiationWatts/m^2,SoftwareType,DateUTC
2013-06-25 00:43:00,60.0,42.0,-100.00,East,95,2.0,3.0,51,0.00,,,0.00,8.000000,,2013-06-25 08:43:00,
2013-06-25 00:52:00,60.0,42.0,-100.00,East,95,2.0,3.0,51,0.00,,,0.00,8.000000,,2013-06-25 08:52:00,
2013-06-25 01:21:00,59.0,42.0,-100.00,ESE,123,3.0,4.0,54,0.00,,,0.00,1.000000,,2013-06-25 09:21:00,
2013-06-25 01:33:00,59.0,42.0,-100.00,ESE,123,3.0,4.0,54,0.00,,,0.00,1.000000,,2013-06-25 09:33:00,
2013-06-25 01:43:00,59.0,42.0,-100.00,ESE,123,3.0,4.0,54,0.00,,,0.00,1.000000,,2013-06-25 09:43:00,
2013-06-25 01:52:00,59.0,42.0,-100.00,ESE,123,3.0,4.0,54,0.00,,,0.00,1.000000,,2013-06-25 09:52:00,
2013-06-25 02:33:00,57.0,43.0,-100.00,SSE,158,3.0,4.0,60,0.00,,,0.00,0.000000,,2013-06-25 10:33:00,
2013-06-25 02:42:00,57.0,43.0,-100.00,SSE,158,3.0,4.0,60,0.00,,,0.00,0.000000,,2013-06-25 10:42:00,
2013-06-25 02:52:00,57.0,43.0,-100.00,SSE,158,3.0,4.0,60,0.00,,,0.00,0.000000,,2013-06-25 10:52:00,
2013-06-25 03:34:00,55.0,43.0,-100.00,South,187,3.0,5.0,64,0.00,,,0.00,0.000000,,2013-06-25 11:34:00,
2013-06-25 03:43:00,55.0,43.0,-100.00,South,187,3.0,5.0,64,0.00,,,0.00,0.000000,,2013-06-25 11:43:00,
2013-06-25 03:52:00,55.0,43.0,-100.00,South,187,3.0,5.0,64,0.00,,,0.00,0.000000,,2013-06-25 11:52:00,
2013-06-25 04:43:00,56.0,45.0,-100.00,South,173,0.0,5.0,66,0.00,,,0.00,0.000000,,2013-06-25 12:43:00,
2013-06-25 04:55:00,56.0,45.0,-100.00,South,173,0.0,5.0,66,0.00,,,0.00,0.000000,,2013-06-25 12:55:00,
2013-06-25 05:22:00,53.0,42.0,-100.00,South,176,3.0,5.0,67,0.00,,,-99.99,5.000000,,2013-06-25 13:22:00,
2013-06-25 05:34:00,53.0,42.0,-100.00,South,176,3.0,5.0,67,0.00,,,-99.99,5.000000,,2013-06-25 13:34:00,
2013-06-25 05:42:00,53.0,42.0,-100.00,South,176,3.0,5.0,67,0.00,,,-99.99,5.000000,,2013-06-25 13:42:00,
2013-06-25 05:53:00,53.0,42.0,-100.00,South,176,3.0,5.0,67,0.00,,,-99.99,5.000000,,2013-06-25 13:53:00,
2013-06-25 06:42:00,54.0,44.0,-100.00,South,185,2.0,5.0,68,0.00,,,0.00,16.000000,,2013-06-25 14:42:00,
2013-06-25 06:53:00,54.0,44.0,-100.00,South,185,2.0,5.0,68,0.00,,,0.00,16.000000,,2013-06-25 14:53:00,
2013-06-25 07:44:00,58.0,47.0,-100.00,South,180,2.0,3.0,66,0.00,,,0.00,63.000000,,2013-06-25 15:44:00,
2013-06-25 07:53:00,58.0,47.0,-100.00,South,180,2.0,3.0,66,0.00,,,0.00,63.000000,,2013-06-25 15:53:00,
2013-06-25 08:23:00,60.0,45.0,-100.00,NW,309,2.0,4.0,58,0.00,,,0.00,210.000000,,2013-06-25 16:23:00,
2013-06-25 08:34:00,60.0,45.0,-100.00,NW,309,2.0,4.0,58,0.00,,,0.00,210.000000,,2013-06-25 16:34:00,
2013-06-25 08:44:00,60.0,45.0,-100.00,NW,309,2.0,4.0,58,0.00,,,0.00,210.000000,,2013-06-25 16:44:00,
2013-06-25 08:52:00,60.0,45.0,-100.00,NW,309,2.0,4.0,58,0.00,,,0.00,210.000000,,2013-06-25 16:52:00,
2013-06-25 09:44:00,63.0,48.0,-100.00,WNW,299,1.0,3.0,59,0.00,,,0.00,342.000000,,2013-06-25 17:44:00,
2013-06-25 09:53:00,63.0,48.0,-100.00,WNW,299,1.0,3.0,59,0.00,,,0.00,342.000000,,2013-06-25 17:53:00,
2013-06-25 10:22:00,65.0,48.0,-100.00,WSW,257,3.0,6.0,54,0.00,,,0.00,495.000000,,2013-06-25 18:22:00,
2013-06-25 10:34:00,65.0,48.0,-100.00,WSW,257,3.0,6.0,54,0.00,,,0.00,495.000000,,2013-06-25 18:34:00,
2013-06-25 10:44:00,65.0,48.0,-100.00,WSW,257,3.0,6.0,54,0.00,,,0.00,495.000000,,2013-06-25 18:44:00,
2013-06-25 10:52:00,65.0,48.0,-100.00,WSW,257,3.0,6.0,54,0.00,,,0.00,495.000000,,2013-06-25 18:52:00,
2013-06-25 11:44:00,61.0,46.0,-100.00,WSW,255,2.0,5.0,58,-99.99,,,0.00,291.000000,,2013-06-25 19:44:00,
2013-06-25 11:53:00,61.0,46.0,-100.00,WSW,255,2.0,5.0,58,-99.99,,,0.00,291.000000,,2013-06-25 19:53:00,
2013-06-25 12:33:00,64.0,47.0,-100.00,WSW,241,3.0,5.0,55,0.00,,,0.00,414.000000,,2013-06-25 20:33:00,
2013-06-25 12:42:00,64.0,47.0,-100.00,WSW,241,3.0,5.0,55,0.00,,,0.00,414.000000,,2013-06-25 20:42:00,
2013-06-25 12:52:00,64.0,47.0,-100.00,WSW,241,3.0,5.0,55,0.00,,,0.00,414.000000,,2013-06-25 20:52:00,
2013-06-25 13:22:00,66.0,49.0,-100.00,SSW,212,4.0,6.0,55,0.00,,,0.00,472.000000,,2013-06-25 21:22:00,
2013-06-25 13:33:00,66.0,49.0,-100.00,SSW,212,4.0,6.0,55,0.00,,,0.00,472.000000,,2013-06-25 21:33:00,
2013-06-25 13:43:00,66.0,49.0,-100.00,SSW,212,4.0,6.0,55,0.00,,,0.00,472.000000,,2013-06-25 21:43:00,
2013-06-25 13:53:00,66.0,49.0,-100.00,SSW,212,4.0,6.0,55,0.00,,,0.00,472.000000,,2013-06-25 21:53:00,
2013-06-25 14:22:00,63.0,48.0,-100.00,South,185,3.0,6.0,58,0.00,,,0.00,239.000000,,2013-06-25 22:22:00,
2013-06-25 14:33:00,63.0,48.0,-100.00,South,185,3.0,6.0,58,0.00,,,0.00,239.000000,,2013-06-25 22:33:00,
2013-06-25 14:42:00,63.0,48.0,-100.00,South,185,3.0,6.0,58,0.00,,,0.00,239.000000,,2013-06-25 22:42:00,
2013-06-25 14:52:00,63.0,48.0,-100.00,South,185,3.0,6.0,58,0.00,,,0.00,239.000000,,2013-06-25 22:52:00,
2013-06-25 15:22:00,65.0,49.0,-100.00,SSW,196,3.0,6.0,57,0.00,,,0.00,173.000000,,2013-06-25 23:22:00,
2013-06-25 15:34:00,65.0,49.0,-100.00,SSW,196,3.0,6.0,57,0.00,,,0.00,173.000000,,2013-06-25 23:34:00,
2013-06-25 15:43:00,65.0,49.0,-100.00,SSW,196,3.0,6.0,57,0.00,,,0.00,173.000000,,2013-06-25 23:43:00,
2013-06-25 15:52:00,65.0,49.0,-100.00,SSW,196,3.0,6.0,57,0.00,,,0.00,173.000000,,2013-06-25 23:52:00,
2013-06-25 17:33:00,73.0,50.0,-100.00,SSW,207,7.0,12.0,44,0.00,,,0.00,620.000000,,2013-06-26 01:33:00,
2013-06-25 17:43:00,73.0,50.0,-100.00,SSW,207,7.0,12.0,44,0.00,,,0.00,620.000000,,2013-06-26 01:43:00,
2013-06-25 17:52:00,73.0,50.0,-100.00,SSW,207,7.0,12.0,44,0.00,,,0.00,620.000000,,2013-06-26 01:52:00,
2013-06-25 18:22:00,74.0,50.0,-100.00,SW,218,6.0,12.0,43,0.00,,,0.00,614.000000,,2013-06-26 02:22:00,
2013-06-25 18:34:00,74.0,50.0,-100.00,SW,218,6.0,12.0,43,0.00,,,0.00,614.000000,,2013-06-26 02:34:00,
2013-06-25 18:43:00,74.0,50.0,-100.00,SW,218,6.0,12.0,43,0.00,,,0.00,614.000000,,2013-06-26 02:43:00,
2013-06-25 18:53:00,74.0,50.0,-100.00,SW,218,6.0,12.0,43,0.00,,,0.00,614.000000,,2013-06-26 02:53:00,
2013-06-25 19:22:00,73.0,50.0,-100.00,SW,221,5.0,8.0,45,0.00,,,0.00,493.000000,,2013-06-26 03:22:00,
2013-06-25 19:33:00,73.0,50.0,-100.00,SW,221,5.0,8.0,45,0.00,,,0.00,493.000000,,2013-06-26 03:33:00,
2013-06-25 19:43:00,73.0,50.0,-100.00,SW,221,5.0,8.0,45,0.00,,,0.00,493.000000,,2013-06-26 03:43:00,
2013-06-25 19:52:00,73.0,50.0,-100.00,SW,221,5.0,8.0,45,0.00,,,0.00,493.000000,,2013-06-26 03:52:00,
2013-06-25 20:33:00,72.0,51.0,-100.00,SW,227,4.0,7.0,48,0.00,,,0.00,375.000000,,2013-06-26 04:33:00,
2013-06-25 20:43:00,72.0,51.0,-100.00,SW,227,4.0,7.0,48,0.00,,,0.00,375.000000,,2013-06-26 04:43:00,
2013-06-25 20:53:00,72.0,51.0,-100.00,SW,227,4.0,7.0,48,0.00,,,0.00,375.000000,,2013-06-26 04:53:00,
2013-06-25 21:22:00,71.0,51.0,-100.00,SW,220,3.0,6.0,49,0.00,,,0.00,255.000000,,2013-06-26 05:22:00,
2013-06-25 21:34:00,71.0,51.0,-100.00,SW,220,3.0,6.0,49,0.00,,,0.00,255.000000,,2013-06-26 05:34:00,
2013-06-25 21:43:00,71.0,51.0,-100.00,SW,220,3.0,6.0,49,0.00,,,0.00,255.000000,,2013-06-26 05:43:00,
2013-06-25 21:52:00,71.0,51.0,-100.00,SW,220,3.0,6.0,49,0.00,,,0.00,255.000000,,2013-06-26 05:52:00,
2013-06-25 22:22:00,69.0,49.0,-100.00,South,174,3.0,6.0,49,0.00,,,0.00,134.000000,,2013-06-26 06:22:00,
2013-06-25 22:34:00,69.0,49.0,-100.00,South,174,3.0,6.0,49,0.00,,,0.00,134.000000,,2013-06-26 06:34:00,
2013-06-25 22:43:00,69.0,49.0,-100.00,South,174,3.0,6.0,49,0.00,,,0.00,134.000000,,2013-06-26 06:43:00,
2013-06-25 22:53:00,69.0,49.0,-100.00,South,174,3.0,6.0,49,0.00,,,0.00,134.000000,,2013-06-26 06:53:00,
2013-06-25 23:22:00,66.0,49.0,-100.00,SE,146,4.0,6.0,55,0.00,,,0.00,40.000000,,2013-06-26 07:22:00,
2013-06-25 23:33:00,66.0,49.0,-100.00,SE,146,4.0,6.0,55,0.00,,,0.00,40.000000,,2013-06-26 07:33:00,
2013-06-25 23:43:00,66.0,49.0,-100.00,SE,146,4.0,6.0,55,0.00,,,0.00,40.000000,,2013-06-26 07:43:00,
2013-06-25 23:53:00,66.0,49.0,-100.00,SE,146,4.0,6.0,55,0.00,,,0.00,40.000000,,2013-06-26 07:53:00,